Time;durP1;ratioP1;P1;durP2;ratioP2;P2;SDS_P1;SDS_P2;PMS_P1;PMS_P2;Temp;Humidity;BMP_temperature;BMP_pressure;BME280_temperature;BME280_humidity;BME280_pressure;Samples;Min_cycle;Max_cycle;Signal;HPM_P1;HPM_P2
2022/04/03 00:01:39;;;;;;;0.83;0.60;;;;;;;-2.97;70.89;100766.78;5070634;28;20202;-72
2022/04/03 00:04:05;;;;;;;0.93;0.73;;;;;;;-3.05;71.32;100764.34;5070606;28;20174;-72
2022/04/03 00:06:30;;;;;;;0.80;0.80;;;;;;;-3.08;70.82;100767.44;5070528;28;20708;-72
2022/04/03 00:08:56;;;;;;;1.03;0.83;;;;;;;-3.08;70.54;100762.91;5070517;28;20257;-71
2022/04/03 00:11:22;;;;;;;0.77;0.77;;;;;;;-3.09;71.10;100765.81;5070494;28;20171;-71
2022/04/03 00:13:49;;;;;;;0.20;0.20;;;;;;;-3.14;71.94;100769.13;5069209;28;20668;-72
2022/04/03 00:16:15;;;;;;;0.30;0.30;;;;;;;-3.17;72.43;100761.53;5072585;28;20503;-72
2022/04/03 00:18:40;;;;;;;3.00;0.80;;;;;;;-3.15;72.73;100764.81;5074534;28;20571;-71
2022/04/03 00:21:05;;;;;;;1.10;1.00;;;;;;;-3.18;72.68;100769.75;5074286;28;20219;-71
2022/04/03 00:23:31;;;;;;;1.23;0.90;;;;;;;-3.24;73.59;100768.75;5074427;28;20616;-73
2022/04/03 00:25:56;;;;;;;0.93;0.87;;;;;;;-3.31;73.81;100763.47;5074456;28;20182;-71
2022/04/03 00:28:22;;;;;;;1.40;1.30;;;;;;;-3.33;75.00;100760.19;5074276;28;20174;-71
2022/04/03 00:30:48;;;;;;;0.63;0.63;;;;;;;-3.36;75.37;100762.44;5074210;28;20662;-72
2022/04/03 00:33:13;;;;;;;0.23;0.23;;;;;;;-3.39;75.47;100765.53;5073889;28;20182;-71
2022/04/03 00:35:39;;;;;;;0.33;0.33;;;;;;;-3.43;75.03;100767.00;5072867;28;20239;-71
2022/04/03 00:38:05;;;;;;;0.57;0.50;;;;;;;-3.40;74.88;100767.38;5073985;28;20209;-71
2022/04/03 00:40:30;;;;;;;0.60;0.60;;;;;;;-3.33;74.74;100773.53;5073996;28;20518;-73
2022/04/03 00:42:56;;;;;;;0.87;0.30;;;;;;;-3.23;74.00;100770.41;5073932;28;20433;-73
2022/04/03 00:45:21;;;;;;;0.77;0.50;;;;;;;-3.17;73.86;100774.09;5073959;28;20182;-72
2022/04/03 00:47:54;;;;;;;1.03;0.97;;;;;;;-3.16;74.33;100765.84;5074274;28;20179;-71
2022/04/03 00:50:20;;;;;;;0.73;0.73;;;;;;;-3.17;74.52;100774.09;5074084;28;20175;-72
2022/04/03 00:52:49;;;;;;;0.97;0.87;;;;;;;-3.26;75.46;100773.50;5074023;28;20417;-72
2022/04/03 00:55:14;;;;;;;0.50;0.50;;;;;;;-3.26;74.98;100770.00;5073750;28;20413;-72
2022/04/03 00:57:43;;;;;;;0.70;0.70;;;;;;;-3.25;74.31;100761.78;5072323;28;20424;-72
2022/04/03 01:00:12;;;;;;;1.40;0.83;;;;;;;-3.11;73.74;100768.69;5073712;28;20448;-74
2022/04/03 01:02:38;;;;;;;0.37;0.37;;;;;;;-3.05;73.49;100770.50;5073617;28;20967;-71
2022/04/03 01:05:04;;;;;;;1.30;1.10;;;;;;;-3.02;73.37;100770.09;5073721;28;20953;-71
2022/04/03 01:07:29;;;;;;;0.70;0.70;;;;;;;-3.01;73.24;100770.91;5073442;28;20508;-70
2022/04/03 01:09:55;;;;;;;0.97;0.97;;;;;;;-3.03;74.14;100765.78;5073534;28;20262;-72
2022/04/03 01:12:20;;;;;;;1.63;0.90;;;;;;;-3.06;74.07;100757.34;5073382;28;20669;-72
2022/04/03 01:14:46;;;;;;;0.40;0.40;;;;;;;-3.06;74.32;100754.69;5073421;28;20175;-76
2022/04/03 01:17:13;;;;;;;1.03;0.83;;;;;;;-3.12;74.08;100763.56;5073513;28;20213;-72
2022/04/03 01:19:40;;;;;;;1.20;1.10;;;;;;;-3.06;74.55;100763.50;5073337;28;20178;-72
2022/04/03 01:22:05;;;;;;;1.30;1.07;;;;;;;-3.00;74.65;100767.22;5073192;28;20986;-71
2022/04/03 01:24:31;;;;;;;0.50;0.50;;;;;;;-3.07;75.12;100759.22;5073151;28;20429;-73
2022/04/03 01:26:57;;;;;;;1.17;0.97;;;;;;;-3.09;75.39;100750.59;5072322;28;20170;-73
2022/04/03 01:29:23;;;;;;;0.53;0.53;;;;;;;-3.11;74.92;100750.00;5073092;28;20209;-71
2022/04/03 01:31:49;;;;;;;0.37;0.37;;;;;;;-3.13;74.66;100756.59;5073017;28;20190;-71
2022/04/03 01:34:16;;;;;;;1.03;0.97;;;;;;;-3.15;74.18;100750.63;5073127;28;20958;-73
2022/04/03 01:36:43;;;;;;;1.20;1.10;;;;;;;-3.19;74.51;100758.25;5073053;28;20425;-72
2022/04/03 01:39:11;;;;;;;1.73;1.63;;;;;;;-3.18;74.04;100743.88;5072782;28;20489;-72
2022/04/03 01:41:38;;;;;;;0.70;0.70;;;;;;;-3.15;74.48;100750.63;5072931;28;20460;-73
2022/04/03 01:44:07;;;;;;;0.87;0.70;;;;;;;-3.15;74.12;100750.63;5072828;28;20424;-72
2022/04/03 01:46:33;;;;;;;0.47;0.40;;;;;;;-3.15;74.52;100748.78;5072822;28;20455;-74
2022/04/03 01:48:58;;;;;;;0.47;0.30;;;;;;;-3.14;74.16;100741.59;5072794;28;20464;-73
2022/04/03 01:51:23;;;;;;;0.20;0.20;;;;;;;-3.08;73.31;100743.38;5072843;28;20185;-72
2022/04/03 01:53:49;;;;;;;0.67;0.67;;;;;;;-3.06;72.69;100735.97;5072751;28;20221;-74
2022/04/03 01:56:14;;;;;;;0.97;0.70;;;;;;;-3.01;72.42;100742.34;5072713;28;20171;-71
2022/04/03 01:58:39;;;;;;;0.37;0.37;;;;;;;-2.90;71.90;100742.66;5072472;28;20637;-73
2022/04/03 02:01:05;;;;;;;0.50;0.50;;;;;;;-2.83;71.33;100740.78;5072543;28;20198;-71
2022/04/03 02:03:30;;;;;;;0.50;0.50;;;;;;;-2.79;70.88;100736.63;5072522;28;20175;-75
2022/04/03 02:05:57;;;;;;;0.33;0.07;;;;;;;-2.72;70.86;100740.91;5071305;28;20674;-71
2022/04/03 02:08:22;;;;;;;0.83;0.60;;;;;;;-2.74;70.65;100742.16;5072330;28;20630;-73
2022/04/03 02:10:48;;;;;;;1.13;0.87;;;;;;;-2.72;70.24;100737.41;5070928;28;20525;-72
2022/04/03 02:13:13;;;;;;;1.27;0.77;;;;;;;-2.68;69.99;100738.63;5072428;28;20175;-73
2022/04/03 02:15:39;;;;;;;1.17;0.53;;;;;;;-2.64;69.84;100741.66;5072270;28;20174;-73
2022/04/03 02:18:04;;;;;;;0.87;0.60;;;;;;;-2.68;69.60;100738.63;5072144;28;20232;-71
2022/04/03 02:20:31;;;;;;;0.40;0.23;;;;;;;-2.78;71.00;100741.75;5072214;28;20178;-74
2022/04/03 02:22:57;;;;;;;0.53;0.37;;;;;;;-2.76;70.70;100733.53;5072001;28;20202;-75
2022/04/03 02:25:24;;;;;;;0.53;0.53;;;;;;;-2.74;70.26;100743.00;5072076;28;20466;-73
2022/04/03 02:27:50;;;;;;;0.30;0.30;;;;;;;-2.77;71.04;100738.03;5072012;28;20900;-71
2022/04/03 02:30:15;;;;;;;0.70;0.70;;;;;;;-2.83;71.84;100730.91;5072365;28;20496;-75
2022/04/03 02:32:41;;;;;;;1.07;1.00;;;;;;;-2.86;72.06;100730.53;5071848;28;20178;-73
2022/04/03 02:35:08;;;;;;;0.50;0.50;;;;;;;-2.83;72.39;100733.56;5071920;28;20167;-71
2022/04/03 02:37:35;;;;;;;0.27;0.20;;;;;;;-2.83;72.74;100730.09;5070477;28;20179;-72
2022/04/03 02:40:01;;;;;;;0.40;0.40;;;;;;;-2.85;72.33;100737.50;5071566;28;20440;-73
2022/04/03 02:42:26;;;;;;;0.30;0.30;;;;;;;-2.86;72.80;100733.19;5071812;28;20464;-74
2022/04/03 02:44:52;;;;;;;0.67;0.67;;;;;;;-2.78;72.60;100735.59;5071801;28;20427;-72
2022/04/03 02:47:18;;;;;;;0.60;0.60;;;;;;;-2.81;72.91;100731.50;5071496;28;20186;-73
2022/04/03 02:49:44;;;;;;;0.17;0.17;;;;;;;-2.81;72.55;100728.00;5071552;28;20196;-71
2022/04/03 02:52:09;;;;;;;1.00;0.40;;;;;;;-2.79;73.03;100728.63;5071569;28;20529;-73
2022/04/03 02:54:35;;;;;;;0.87;0.67;;;;;;;-2.81;73.22;100730.69;5071468;28;20309;-71
2022/04/03 02:57:01;;;;;;;0.13;0.13;;;;;;;-2.76;72.59;100731.66;5071502;28;20205;-76
2022/04/03 02:59:26;;;;;;;0.03;0.03;;;;;;;-2.73;72.52;100733.09;5071610;28;20167;-72
2022/04/03 03:01:52;;;;;;;0.40;0.40;;;;;;;-2.72;72.38;100732.88;5071406;28;20462;-72
2022/04/03 03:04:17;;;;;;;0.50;0.30;;;;;;;-2.78;72.73;100727.56;5071312;28;20284;-77
2022/04/03 03:06:42;;;;;;;0.30;0.30;;;;;;;-2.82;73.09;100731.72;5071260;28;20175;-73
2022/04/03 03:09:08;;;;;;;0.37;0.37;;;;;;;-2.83;73.17;100727.41;5071308;28;20783;-72
2022/04/03 03:11:33;;;;;;;0.07;0.07;;;;;;;-2.86;73.18;100722.50;5071305;28;20269;-74
2022/04/03 03:13:59;;;;;;;0.30;0.30;;;;;;;-2.86;73.31;100717.97;5071283;28;20546;-73
2022/04/03 03:16:24;;;;;;;0.40;0.30;;;;;;;-2.95;73.29;100711.25;5071281;28;20311;-72
2022/04/03 03:18:50;;;;;;;1.80;0.33;;;;;;;-3.03;73.94;100719.53;5071480;28;20254;-72
2022/04/03 03:21:15;;;;;;;0.20;0.20;;;;;;;-3.13;74.49;100714.66;5071238;28;20195;-75
2022/04/03 03:23:41;;;;;;;0.20;0.20;;;;;;;-3.18;74.92;100703.81;5071197;28;20533;-72
2022/04/03 03:26:06;;;;;;;0.10;0.10;;;;;;;-3.18;75.14;100714.50;5071036;28;20167;-71
2022/04/03 03:28:32;;;;;;;0.53;0.53;;;;;;;-3.12;74.69;100705.59;5071009;28;20180;-72
2022/04/03 03:30:57;;;;;;;0.20;0.20;;;;;;;-3.18;74.89;100706.47;5071013;28;20184;-72
2022/04/03 03:33:23;;;;;;;0.10;0.10;;;;;;;-3.17;75.21;100707.28;5070993;28;20178;-72
2022/04/03 03:35:48;;;;;;;0.50;0.43;;;;;;;-3.15;74.81;100705.22;5071064;28;20170;-72
2022/04/03 03:38:14;;;;;;;0.50;0.40;;;;;;;-3.16;74.59;100707.06;5070812;28;20692;-72
2022/04/03 03:40:39;;;;;;;0.27;0.27;;;;;;;-3.19;74.68;100707.47;5070905;28;20241;-76
2022/04/03 03:43:05;;;;;;;0.10;0.10;;;;;;;-3.20;74.49;100705.03;5070949;28;20210;-73
2022/04/03 03:45:31;;;;;;;0.00;0.00;;;;;;;-3.16;74.52;100712.41;5071005;28;20537;-77
2022/04/03 03:47:57;;;;;;;0.00;0.00;;;;;;;-3.14;74.41;100704.19;5070670;28;20531;-72
2022/04/03 03:50:23;;;;;;;0.40;0.30;;;;;;;-2.94;73.53;100706.72;5070460;28;20170;-71
2022/04/03 03:52:48;;;;;;;0.80;0.70;;;;;;;-2.73;72.00;100715.22;5070846;28;20427;-73
2022/04/03 03:55:13;;;;;;;0.10;0.10;;;;;;;-2.73;71.75;100711.72;5071037;28;20751;-75
2022/04/03 03:57:39;;;;;;;0.47;0.47;;;;;;;-2.75;71.52;100719.13;5070622;28;20185;-74
2022/04/03 04:00:09;;;;;;;0.37;0.37;;;;;;;-2.84;71.76;100712.41;5070799;28;20182;-73
2022/04/03 04:02:34;;;;;;;0.77;0.63;;;;;;;-2.85;72.15;100705.44;5070642;28;20237;-72
2022/04/03 04:04:59;;;;;;;0.37;0.37;;;;;;;-2.90;72.26;100713.25;5070908;28;20452;-74
2022/04/03 04:07:25;;;;;;;0.23;0.23;;;;;;;-2.96;72.63;100708.78;5070612;28;20174;-73
2022/04/03 04:09:50;;;;;;;0.47;0.47;;;;;;;-2.95;72.47;100713.91;5070709;28;20312;-73
2022/04/03 04:12:15;;;;;;;0.30;0.30;;;;;;;-3.00;72.73;100714.56;5070993;28;20258;-76
2022/04/03 04:14:40;;;;;;;0.10;0.10;;;;;;;-2.99;73.75;100715.38;5070838;28;20578;-73
2022/04/03 04:17:08;;;;;;;0.00;0.00;;;;;;;-2.94;73.41;100704.03;5070498;28;20648;-76
2022/04/03 04:19:34;;;;;;;0.80;0.70;;;;;;;-2.78;72.77;100707.00;5070437;28;20653;-75
2022/04/03 04:21:59;;;;;;;0.20;0.20;;;;;;;-2.77;72.65;100708.63;5070310;28;20468;-76
2022/04/03 04:24:25;;;;;;;0.37;0.37;;;;;;;-2.65;72.03;100714.09;5070519;28;20264;-76
2022/04/03 04:26:50;;;;;;;0.03;0.03;;;;;;;-2.52;71.35;100714.00;5070336;28;20174;-75
2022/04/03 04:29:16;;;;;;;0.33;0.33;;;;;;;-2.42;70.72;100725.03;5070214;28;20182;-76
2022/04/03 04:31:41;;;;;;;0.37;0.37;;;;;;;-2.39;70.42;100721.09;5069213;28;20191;-74
2022/04/03 04:34:07;;;;;;;3.07;0.53;;;;;;;-2.38;70.36;100721.91;5070314;28;20278;-75
2022/04/03 04:36:32;;;;;;;0.83;0.40;;;;;;;-2.30;70.46;100724.31;5070314;28;20177;-73
2022/04/03 04:38:58;;;;;;;0.20;0.10;;;;;;;-2.31;70.45;100715.47;5070068;28;20542;-76
2022/04/03 04:41:24;;;;;;;2.83;1.07;;;;;;;-2.20;68.90;100714.72;5070112;28;20201;-75
2022/04/03 04:43:49;;;;;;;0.23;0.23;;;;;;;-1.98;67.04;100725.84;5070164;28;20178;-76
2022/04/03 04:46:14;;;;;;;0.57;0.57;;;;;;;-1.87;66.37;100729.66;5070094;28;20185;-75
2022/04/03 04:48:40;;;;;;;0.10;0.10;;;;;;;-1.90;66.99;100714.03;5069032;28;20240;-75
2022/04/03 04:51:05;;;;;;;0.00;0.00;;;;;;;-1.99;67.12;100713.50;5070234;28;20186;-75
2022/04/03 04:53:30;;;;;;;0.40;0.40;;;;;;;-1.90;66.49;100722.88;5070206;28;20171;-76
2022/04/03 04:55:56;;;;;;;0.33;0.27;;;;;;;-1.75;66.00;100724.34;5070196;28;20178;-75
2022/04/03 04:58:21;;;;;;;0.37;0.37;;;;;;;-1.70;65.13;100713.81;5070101;28;20186;-73
2022/04/03 05:00:47;;;;;;;0.63;0.63;;;;;;;-1.57;64.01;100717.16;5068735;28;20478;-75
2022/04/03 05:03:12;;;;;;;0.80;0.40;;;;;;;-1.48;63.65;100717.66;5071905;28;20759;-76
2022/04/03 05:05:38;;;;;;;1.00;0.97;;;;;;;-1.31;62.18;100726.69;5073570;28;20244;-76
2022/04/03 05:08:04;;;;;;;0.80;0.70;;;;;;;-1.25;62.12;100723.13;5073434;28;20170;-74
2022/04/03 05:10:31;;;;;;;0.47;0.47;;;;;;;-1.20;61.82;100736.66;5073493;28;20399;-76
2022/04/03 05:12:57;;;;;;;0.53;0.53;;;;;;;-1.17;62.15;100731.88;5073419;28;20409;-77
2022/04/03 05:15:22;;;;;;;0.00;0.00;;;;;;;-1.11;61.61;100729.13;5073825;28;20445;-75
2022/04/03 05:17:48;;;;;;;0.70;0.60;;;;;;;-1.01;60.52;100726.72;5073708;28;20479;-73
2022/04/03 05:20:15;;;;;;;0.33;0.03;;;;;;;-1.04;61.05;100727.16;5073316;28;20192;-76
2022/04/03 05:22:42;;;;;;;0.10;0.10;;;;;;;-1.04;61.15;100718.31;5073381;28;20202;-75
2022/04/03 05:25:11;;;;;;;0.10;0.10;;;;;;;-1.00;60.67;100717.63;5073729;28;20419;-76
2022/04/03 05:27:36;;;;;;;0.00;0.00;;;;;;;-0.95;60.15;100722.31;5073129;28;20416;-74
2022/04/03 05:30:03;;;;;;;0.20;0.20;;;;;;;-0.92;60.73;100728.03;5073154;28;20421;-73
2022/04/03 05:32:30;;;;;;;4.33;0.67;;;;;;;-0.83;60.38;100730.38;5073191;28;20182;-76
2022/04/03 05:34:56;;;;;;;0.40;0.33;;;;;;;-0.82;60.42;100714.06;5071834;28;20425;-75
2022/04/03 05:37:22;;;;;;;0.57;0.30;;;;;;;-0.77;60.31;100716.88;5072968;28;20915;-76
2022/04/03 05:39:49;;;;;;;0.30;0.30;;;;;;;-0.77;59.86;100719.56;5072792;28;20432;-74
2022/04/03 05:42:15;;;;;;;1.60;0.47;;;;;;;-0.82;60.88;100715.94;5072979;28;20199;-73
2022/04/03 05:44:40;;;;;;;0.20;0.20;;;;;;;-0.84;60.71;100721.53;5073122;28;20416;-76
2022/04/03 05:47:06;;;;;;;0.33;0.33;;;;;;;-0.83;60.56;100728.53;5071507;28;20218;-76
2022/04/03 05:49:31;;;;;;;2.63;0.90;;;;;;;-0.87;60.74;100730.00;5073202;28;20269;-75
2022/04/03 05:51:57;;;;;;;0.30;0.30;;;;;;;-0.90;61.56;100735.84;5072783;28;20626;-75
2022/04/03 05:54:22;;;;;;;0.47;0.47;;;;;;;-0.97;61.72;100722.53;5072714;28;20171;-74
2022/04/03 05:56:48;;;;;;;1.27;1.27;;;;;;;-0.92;61.60;100727.19;5072552;28;20179;-74
2022/04/03 05:59:14;;;;;;;0.30;0.27;;;;;;;-0.94;61.54;100724.75;5073227;28;20185;-75
2022/04/03 06:01:39;;;;;;;0.00;0.00;;;;;;;-0.94;61.74;100738.16;5072757;28;20202;-75
2022/04/03 06:04:05;;;;;;;0.67;0.67;;;;;;;-0.92;62.15;100733.38;5072744;28;20653;-73
2022/04/03 06:06:31;;;;;;;0.07;0.07;;;;;;;-0.86;62.20;100738.91;5072455;28;20420;-76
2022/04/03 06:08:56;;;;;;;0.57;0.57;;;;;;;-0.83;62.19;100741.94;5072335;28;20181;-76
2022/04/03 06:11:21;;;;;;;0.40;0.37;;;;;;;-0.79;62.11;100745.78;5072662;28;20544;-75
2022/04/03 06:13:47;;;;;;;0.43;0.43;;;;;;;-0.75;62.01;100744.28;5072092;28;20640;-76
2022/04/03 06:16:12;;;;;;;2.10;2.00;;;;;;;-0.69;62.03;100745.25;5072505;28;20220;-75
2022/04/03 06:18:37;;;;;;;0.10;0.10;;;;;;;-0.65;61.85;100749.91;5071990;28;20181;-73
2022/04/03 06:21:02;;;;;;;0.23;0.17;;;;;;;-0.58;61.81;100755.16;5070831;28;20837;-75
2022/04/03 06:23:29;;;;;;;0.10;0.10;;;;;;;-0.50;61.86;100746.78;5072747;28;20179;-73
2022/04/03 06:25:55;;;;;;;0.77;0.30;;;;;;;-0.39;61.31;100753.22;5072175;28;20633;-71
2022/04/03 06:28:21;;;;;;;0.20;0.20;;;;;;;-0.35;61.86;100744.47;5072791;28;20817;-71
2022/04/03 06:30:47;;;;;;;0.90;0.90;;;;;;;-0.28;62.51;100744.38;5074515;28;20415;-71
2022/04/03 06:33:13;;;;;;;0.20;0.20;;;;;;;-0.22;62.18;100743.44;5073023;28;20228;-71
2022/04/03 06:35:39;;;;;;;0.40;0.40;;;;;;;-0.20;62.42;100745.88;5071976;28;20424;-71
2022/04/03 06:38:05;;;;;;;0.80;0.67;;;;;;;-0.18;63.19;100736.53;5071856;28;20504;-70
2022/04/03 06:40:34;;;;;;;0.40;0.30;;;;;;;-0.18;63.19;100744.59;5071852;28;20842;-71
2022/04/03 06:42:59;;;;;;;0.13;0.13;;;;;;;-0.17;64.06;100743.53;5071738;28;20202;-71
2022/04/03 06:45:26;;;;;;;0.27;0.17;;;;;;;-0.23;64.64;100741.81;5071664;28;20462;-72
2022/04/03 06:47:52;;;;;;;0.97;0.60;;;;;;;-0.27;64.97;100748.69;5070214;28;20266;-71
2022/04/03 06:50:19;;;;;;;0.00;0.00;;;;;;;-0.34;65.71;100742.59;5071871;28;20499;-72
2022/04/03 06:52:44;;;;;;;0.20;0.20;;;;;;;-0.37;66.36;100743.06;5071538;28;20235;-72
2022/04/03 06:55:10;;;;;;;0.30;0.30;;;;;;;-0.34;66.97;100748.78;5071526;28;20420;-71
2022/04/03 06:57:36;;;;;;;0.23;0.23;;;;;;;-0.25;67.01;100751.16;5071276;28;20233;-71
2022/04/03 07:00:05;;;;;;;0.30;0.30;;;;;;;-0.20;67.74;100740.50;5071563;28;20257;-72
2022/04/03 07:02:30;;;;;;;0.83;0.83;;;;;;;-0.09;66.85;100742.38;5071284;28;20468;-71
2022/04/03 07:04:56;;;;;;;1.00;0.50;;;;;;;-0.02;66.71;100738.53;5071388;28;20498;-71
2022/04/03 07:07:22;;;;;;;0.63;0.23;;;;;;;0.05;66.72;100749.16;5071147;28;20183;-71
2022/04/03 07:09:48;;;;;;;3.70;2.60;;;;;;;0.08;67.02;100747.88;5071227;28;20622;-71
2022/04/03 07:12:14;;;;;;;0.53;0.40;;;;;;;0.14;67.39;100745.03;5071362;28;20413;-72
2022/04/03 07:14:39;;;;;;;0.73;0.73;;;;;;;0.16;67.83;100751.03;5071187;28;20174;-72
2022/04/03 07:17:05;;;;;;;0.37;0.37;;;;;;;0.23;68.66;100746.34;5071096;28;20558;-71
2022/04/03 07:19:30;;;;;;;0.77;0.77;;;;;;;0.38;69.78;100750.41;5071043;28;20560;-72
2022/04/03 07:21:57;;;;;;;1.17;1.07;;;;;;;0.49;69.34;100750.38;5070596;28;20201;-72
2022/04/03 07:24:23;;;;;;;1.93;1.20;;;;;;;0.59;69.42;100741.72;5070945;28;20178;-72
2022/04/03 07:26:48;;;;;;;0.93;0.90;;;;;;;0.67;69.23;100748.56;5070347;28;20919;-71
2022/04/03 07:29:14;;;;;;;0.60;0.60;;;;;;;0.79;69.52;100754.75;5070939;28;20232;-71
2022/04/03 07:31:39;;;;;;;0.87;0.87;;;;;;;0.87;69.82;100746.31;5070955;28;20262;-72
2022/04/03 07:34:04;;;;;;;1.77;1.07;;;;;;;0.83;69.92;100747.81;5070932;28;20181;-74
2022/04/03 07:36:30;;;;;;;1.90;1.07;;;;;;;0.87;70.22;100744.44;5070008;28;20194;-72
2022/04/03 07:38:56;;;;;;;1.80;0.93;;;;;;;1.01;70.20;100741.44;5069260;28;20248;-72
2022/04/03 07:41:21;;;;;;;0.47;0.47;;;;;;;1.22;70.77;100753.41;5069288;28;20566;-72
2022/04/03 07:43:47;;;;;;;1.70;1.60;;;;;;;1.30;70.63;100748.44;5069491;28;20308;-72
2022/04/03 07:46:16;;;;;;;0.67;0.63;;;;;;;1.36;70.47;100749.34;5069765;28;20221;-73
2022/04/03 07:48:42;;;;;;;1.47;0.93;;;;;;;1.43;70.73;100744.59;5069751;28;20166;-72
2022/04/03 07:51:07;;;;;;;0.83;0.83;;;;;;;1.55;70.74;100748.03;5069283;28;20625;-73
2022/04/03 07:53:32;;;;;;;2.03;1.93;;;;;;;1.60;70.65;100745.44;5069462;28;20185;-73
2022/04/03 07:55:58;;;;;;;1.03;1.03;;;;;;;1.64;70.53;100746.59;5069696;28;20177;-74
2022/04/03 07:58:23;;;;;;;0.70;0.70;;;;;;;1.74;70.97;100757.53;5069335;28;20213;-77
2022/04/03 08:00:48;;;;;;;0.73;0.73;;;;;;;1.85;70.86;100760.38;5069458;28;20648;-73
2022/04/03 08:03:16;;;;;;;1.50;0.97;;;;;;;1.91;70.67;100759.41;5069661;28;20256;-74
2022/04/03 08:05:42;;;;;;;0.53;0.53;;;;;;;1.93;70.57;100752.69;5069678;28;20178;-73
2022/04/03 08:08:07;;;;;;;3.33;1.27;;;;;;;2.02;70.77;100758.47;5069276;28;20657;-73
2022/04/03 08:10:32;;;;;;;0.47;0.47;;;;;;;2.26;70.14;100768.00;5069382;28;20186;-74
2022/04/03 08:12:58;;;;;;;1.00;1.00;;;;;;;2.42;69.12;100762.81;5069340;28;20641;-72
2022/04/03 08:15:24;;;;;;;0.40;0.40;;;;;;;2.58;68.27;100770.03;5069491;28;20213;-73
2022/04/03 08:17:50;;;;;;;0.73;0.73;;;;;;;2.63;68.02;100760.13;5069259;28;20174;-74
2022/04/03 08:20:16;;;;;;;0.50;0.50;;;;;;;2.83;67.20;100764.94;5069419;28;20206;-75
2022/04/03 08:22:44;;;;;;;1.43;0.73;;;;;;;2.81;66.42;100760.88;5069275;28;20206;-74
2022/04/03 08:25:10;;;;;;;0.20;0.20;;;;;;;2.68;65.88;100751.28;5067937;28;20788;-74
2022/04/03 08:27:46;;;;;;;0.80;0.77;;;;;;;2.70;66.82;100754.53;5068939;28;20179;-73
2022/04/03 08:30:21;;;;;;;0.37;0.30;;;;;;;2.86;66.54;100752.81;5065660;28;20190;-73
2022/04/03 08:32:47;;;;;;;0.20;0.20;;;;;;;3.03;66.17;100745.47;5069160;28;20170;-74
2022/04/03 08:35:14;;;;;;;2.70;0.63;;;;;;;3.10;66.18;100727.19;5069179;28;20170;-72
2022/04/03 08:37:40;;;;;;;0.90;0.90;;;;;;;3.29;66.14;100733.03;5071802;28;20193;-74
2022/04/03 08:40:07;;;;;;;0.67;0.67;;;;;;;3.52;65.97;100726.50;5073982;28;20182;-76
2022/04/03 08:42:33;;;;;;;0.43;0.43;;;;;;;3.58;63.98;100718.16;5074569;28;20374;-75
2022/04/03 08:44:59;;;;;;;1.50;1.20;;;;;;;3.68;63.17;100728.25;5074109;28;20270;-76
2022/04/03 08:47:25;;;;;;;4.10;0.47;;;;;;;3.54;62.26;100967.47;5073833;28;20265;-72
2022/04/03 08:49:56;;;;;;;1.33;1.23;;;;;;;3.63;63.53;100986.75;5073897;28;20634;-74
2022/04/03 08:52:22;;;;;;;1.40;0.97;;;;;;;3.72;63.12;100956.31;5074257;28;20197;-76
2022/04/03 08:54:47;;;;;;;6.30;1.03;;;;;;;3.80;63.59;100980.19;5072794;28;20178;-75
2022/04/03 08:57:13;;;;;;;0.83;0.60;;;;;;;3.94;63.26;100998.72;5073682;28;20273;-74
2022/04/03 08:59:38;;;;;;;2.00;1.03;;;;;;;4.13;62.90;101003.53;5073617;28;20182;-75
2022/04/03 09:02:03;;;;;;;0.43;0.33;;;;;;;4.17;62.08;101011.94;5073495;28;20202;-75
2022/04/03 09:04:31;;;;;;;1.67;1.57;;;;;;;4.16;62.24;100996.78;5073587;28;20366;-74
2022/04/03 09:07:02;;;;;;;0.40;0.40;;;;;;;4.03;61.74;100998.00;5073343;28;20503;-77
2022/04/03 09:09:30;;;;;;;0.67;0.67;;;;;;;4.10;62.47;100978.91;5073639;28;20186;-72
2022/04/03 09:12:10;;;;;;;1.67;1.57;;;;;;;4.00;62.13;100993.13;5073509;28;20181;-73
2022/04/03 09:14:50;;;;;;;0.73;0.73;;;;;;;4.22;61.69;100998.50;5073493;28;20692;-75
2022/04/03 09:17:38;;;;;;;0.60;0.60;;;;;;;4.31;61.56;100931.22;5073261;28;20621;-76
2022/04/03 09:20:08;;;;;;;1.00;1.00;;;;;;;4.38;61.59;101002.16;5073739;28;20155;-73
2022/04/03 09:22:36;;;;;;;1.10;1.00;;;;;;;4.42;60.77;101017.59;5073595;28;20199;-73
2022/04/03 09:25:07;;;;;;;1.73;1.07;;;;;;;4.25;60.69;101016.09;5073579;28;20167;-73
2022/04/03 09:27:34;;;;;;;1.50;1.40;;;;;;;4.25;60.68;101010.69;5073468;28;20182;-74
2022/04/03 09:30:05;;;;;;;1.33;1.23;;;;;;;4.50;60.67;101004.69;5073121;28;20170;-74
2022/04/03 09:32:30;;;;;;;0.63;0.63;;;;;;;4.47;60.66;101000.59;5073240;28;20185;-76
2022/04/03 09:34:57;;;;;;;1.10;1.10;;;;;;;4.63;60.44;101013.22;5073065;28;20174;-76
2022/04/03 09:37:25;;;;;;;1.27;1.17;;;;;;;4.59;60.19;100998.53;5072931;28;20181;-77
2022/04/03 09:39:50;;;;;;;0.60;0.50;;;;;;;4.70;59.99;100999.44;5073423;28;20186;-74
2022/04/03 09:42:17;;;;;;;0.97;0.47;;;;;;;4.62;59.30;100989.09;5072846;28;20202;-76
2022/04/03 09:44:46;;;;;;;0.57;0.53;;;;;;;4.58;59.06;100993.38;5072922;28;20183;-74
2022/04/03 09:47:32;;;;;;;0.40;0.40;;;;;;;4.58;58.84;100999.63;5072521;28;20170;-73
2022/04/03 09:50:00;;;;;;;2.07;0.97;;;;;;;4.65;59.86;101000.22;5071904;28;20170;-76
2022/04/03 09:52:47;;;;;;;0.30;0.20;;;;;;;4.83;60.32;101000.91;5072432;28;20174;-73
2022/04/03 09:55:17;;;;;;;11.13;1.07;;;;;;;4.89;60.02;101000.66;5072535;28;20178;-73
2022/04/03 09:58:04;;;;;;;1.07;0.93;;;;;;;4.89;58.59;100992.53;5072352;28;20179;-74
2022/04/03 10:00:34;;;;;;;0.30;0.30;;;;;;;4.83;58.48;100954.88;5072384;28;20261;-73
2022/04/03 10:03:01;;;;;;;0.83;0.83;;;;;;;4.80;57.70;101004.13;5072394;28;20198;-75
2022/04/03 10:05:30;;;;;;;0.47;0.27;;;;;;;4.64;58.01;100986.97;5072298;28;20175;-72
2022/04/03 10:08:02;;;;;;;0.10;0.10;;;;;;;4.65;57.56;100996.72;5072205;28;20185;-73
2022/04/03 10:10:28;;;;;;;1.63;0.53;;;;;;;4.95;58.40;100990.72;5072062;28;20266;-73
2022/04/03 10:12:57;;;;;;;0.27;0.27;;;;;;;4.93;58.36;100985.56;5070800;28;20182;-73
2022/04/03 10:15:31;;;;;;;0.90;0.90;;;;;;;4.97;59.45;100981.25;5072237;28;20254;-73
2022/04/03 10:17:56;;;;;;;2.30;0.60;;;;;;;5.06;59.66;100978.84;5071931;28;20175;-73
2022/04/03 10:20:28;;;;;;;0.60;0.60;;;;;;;5.17;59.02;100931.78;5072204;28;20174;-73
2022/04/03 10:23:03;;;;;;;1.00;0.90;;;;;;;5.26;59.36;100929.41;5072400;28;20206;-76
2022/04/03 10:25:31;;;;;;;1.37;0.70;;;;;;;5.32;59.29;100960.84;5072337;28;20177;-73
2022/04/03 10:28:02;;;;;;;0.10;0.10;;;;;;;5.11;58.81;100951.00;5072075;28;20539;-73
2022/04/03 10:30:44;;;;;;;0.70;0.70;;;;;;;4.98;59.38;100954.97;5072311;28;20213;-73
2022/04/03 10:33:20;;;;;;;0.50;0.50;;;;;;;5.08;59.28;100952.34;5072038;28;20239;-72
2022/04/03 10:36:01;;;;;;;0.40;0.40;;;;;;;5.22;58.03;100958.94;5072351;28;20182;-76
2022/04/03 10:38:56;;;;;;;1.23;0.70;;;;;;;5.53;58.46;100953.63;5071670;28;20316;-72
2022/04/03 10:41:34;;;;;;;0.20;0.20;;;;;;;5.75;58.39;100945.28;5071079;28;20206;-73
2022/04/03 10:44:35;;;;;;;0.70;0.70;;;;;;;5.84;57.05;100944.53;5071517;28;20566;-73
2022/04/03 10:47:05;;;;;;;0.10;0.10;;;;;;;5.63;57.12;100959.06;5028799;28;20186;-75
2022/04/03 10:49:37;;;;;;;0.67;0.40;;;;;;;5.29;56.92;100937.00;5059628;28;20194;-76
2022/04/03 10:52:26;;;;;;;0.90;0.60;;;;;;;5.14;57.98;100939.63;5071527;28;20220;-73
2022/04/03 10:54:54;;;;;;;0.40;0.20;;;;;;;5.08;57.75;100922.56;5071506;28;20696;-73
2022/04/03 10:57:41;;;;;;;6.70;1.20;;;;;;;5.24;58.90;100939.69;5071261;28;20171;-74
2022/04/03 11:00:38;;;;;;;0.87;0.70;;;;;;;5.30;58.83;100934.03;5070452;28;20258;-73
2022/04/03 11:03:18;;;;;;;0.47;0.47;;;;;;;5.29;59.18;100945.13;5066852;28;20315;-75
2022/04/03 11:05:48;;;;;;;0.20;0.20;;;;;;;5.17;59.03;100930.97;5071549;28;20272;-74
2022/04/03 11:08:17;;;;;;;0.50;0.33;;;;;;;5.08;60.30;100927.97;5071324;28;20170;-73
2022/04/03 11:10:48;;;;;;;1.07;0.57;;;;;;;5.01;60.78;100939.03;5071097;28;20597;-72
2022/04/03 11:13:15;;;;;;;0.83;0.47;;;;;;;4.97;60.88;100923.56;5071139;28;20216;-73
2022/04/03 11:15:56;;;;;;;0.43;0.23;;;;;;;4.95;62.27;100934.66;5069832;28;20189;-76
2022/04/03 11:18:28;;;;;;;1.10;1.00;;;;;;;4.88;62.98;100935.97;5069016;28;20190;-74
2022/04/03 11:21:26;;;;;;;0.50;0.50;;;;;;;4.75;64.32;100937.22;5067865;28;20638;-74
2022/04/03 11:24:11;;;;;;;1.17;0.30;;;;;;;4.72;65.24;100945.88;5067098;28;20194;-75
2022/04/03 11:26:43;;;;;;;0.70;0.70;;;;;;;4.70;65.56;100946.13;5071426;28;20510;-73
2022/04/03 11:29:14;;;;;;;1.13;1.03;;;;;;;4.72;65.25;100943.16;5071063;28;20159;-73
2022/04/03 11:31:43;;;;;;;1.67;0.90;;;;;;;4.69;65.13;100939.09;5071078;28;20232;-74